sensor_id;sensor_type;location;lat;lon;timestamp;P1;durP1;ratioP1;P2;durP2;ratioP2
66327;SDS011;53133;52.862;6.602;2022-12-19T00:00:20;45.70;;;22.33;;
66327;SDS011;53133;52.862;6.602;2022-12-19T00:02:46;45.27;;;21.90;;
66327;SDS011;53133;52.862;6.602;2022-12-19T00:05:12;44.17;;;22.13;;
66327;SDS011;53133;52.862;6.602;2022-12-19T00:07:38;43.47;;;21.77;;
66327;SDS011;53133;52.862;6.602;2022-12-19T00:10:04;44.33;;;21.87;;
66327;SDS011;53133;52.862;6.602;2022-12-19T00:12:30;44.53;;;21.63;;
66327;SDS011;53133;52.862;6.602;2022-12-19T00:14:56;43.50;;;21.67;;
66327;SDS011;53133;52.862;6.602;2022-12-19T00:17:21;44.40;;;22.33;;
66327;SDS011;53133;52.862;6.602;2022-12-19T00:19:47;43.23;;;22.50;;
66327;SDS011;53133;52.862;6.602;2022-12-19T00:22:13;46.97;;;22.40;;
66327;SDS011;53133;52.862;6.602;2022-12-19T00:24:39;40.13;;;21.20;;
66327;SDS011;53133;52.862;6.602;2022-12-19T00:27:04;39.37;;;20.40;;
66327;SDS011;53133;52.862;6.602;2022-12-19T00:29:30;42.73;;;21.77;;
66327;SDS011;53133;52.862;6.602;2022-12-19T00:31:56;41.47;;;21.03;;
66327;SDS011;53133;52.862;6.602;2022-12-19T00:34:22;43.53;;;20.93;;
66327;SDS011;53133;52.862;6.602;2022-12-19T00:36:48;44.33;;;21.67;;
66327;SDS011;53133;52.862;6.602;2022-12-19T00:39:13;41.97;;;20.77;;
66327;SDS011;53133;52.862;6.602;2022-12-19T00:41:39;43.93;;;20.33;;
66327;SDS011;53133;52.862;6.602;2022-12-19T00:44:06;45.33;;;21.50;;
66327;SDS011;53133;52.862;6.602;2022-12-19T00:46:40;37.50;;;20.23;;
66327;SDS011;53133;52.862;6.602;2022-12-19T00:49:06;41.40;;;20.97;;
66327;SDS011;53133;52.862;6.602;2022-12-19T00:51:32;41.53;;;20.13;;
66327;SDS011;53133;52.862;6.602;2022-12-19T00:54:00;40.97;;;21.00;;
66327;SDS011;53133;52.862;6.602;2022-12-19T00:56:27;42.10;;;20.63;;
66327;SDS011;53133;52.862;6.602;2022-12-19T00:58:55;39.17;;;20.43;;
66327;SDS011;53133;52.862;6.602;2022-12-19T01:01:23;39.07;;;20.20;;
66327;SDS011;53133;52.862;6.602;2022-12-19T01:03:50;44.13;;;21.50;;
66327;SDS011;53133;52.862;6.602;2022-12-19T01:06:17;42.30;;;20.87;;
66327;SDS011;53133;52.862;6.602;2022-12-19T01:08:43;41.10;;;20.00;;
66327;SDS011;53133;52.862;6.602;2022-12-19T01:11:09;42.30;;;20.23;;
66327;SDS011;53133;52.862;6.602;2022-12-19T01:13:35;41.10;;;20.33;;
66327;SDS011;53133;52.862;6.602;2022-12-19T01:16:06;40.10;;;19.87;;
66327;SDS011;53133;52.862;6.602;2022-12-19T01:18:34;38.10;;;19.92;;
66327;SDS011;53133;52.862;6.602;2022-12-19T01:21:02;43.23;;;20.87;;
66327;SDS011;53133;52.862;6.602;2022-12-19T01:23:29;42.93;;;20.20;;
66327;SDS011;53133;52.862;6.602;2022-12-19T01:25:55;39.13;;;20.27;;
66327;SDS011;53133;52.862;6.602;2022-12-19T01:28:21;40.83;;;21.13;;
66327;SDS011;53133;52.862;6.602;2022-12-19T01:30:48;41.33;;;20.53;;
66327;SDS011;53133;52.862;6.602;2022-12-19T01:33:14;45.10;;;20.90;;
66327;SDS011;53133;52.862;6.602;2022-12-19T01:35:41;43.47;;;21.20;;
66327;SDS011;53133;52.862;6.602;2022-12-19T01:38:11;40.40;;;20.50;;
66327;SDS011;53133;52.862;6.602;2022-12-19T01:40:38;46.13;;;21.27;;
66327;SDS011;53133;52.862;6.602;2022-12-19T01:43:04;42.60;;;20.97;;
66327;SDS011;53133;52.862;6.602;2022-12-19T01:45:31;44.70;;;22.00;;
66327;SDS011;53133;52.862;6.602;2022-12-19T01:50:58;42.40;;;21.30;;
66327;SDS011;53133;52.862;6.602;2022-12-19T01:53:28;39.00;;;20.37;;
66327;SDS011;53133;52.862;6.602;2022-12-19T01:55:57;46.50;;;21.30;;
66327;SDS011;53133;52.862;6.602;2022-12-19T01:58:24;45.90;;;20.93;;
66327;SDS011;53133;52.862;6.602;2022-12-19T02:00:50;43.60;;;21.10;;
66327;SDS011;53133;52.862;6.602;2022-12-19T02:03:28;42.73;;;21.73;;
66327;SDS011;53133;52.862;6.602;2022-12-19T02:05:55;44.50;;;21.20;;
66327;SDS011;53133;52.862;6.602;2022-12-19T02:08:22;40.20;;;21.03;;
66327;SDS011;53133;52.862;6.602;2022-12-19T02:10:50;46.00;;;20.67;;
66327;SDS011;53133;52.862;6.602;2022-12-19T02:13:15;45.77;;;20.33;;
66327;SDS011;53133;52.862;6.602;2022-12-19T02:40:32;53.50;;;22.23;;
66327;SDS011;53133;52.862;6.602;2022-12-19T02:43:04;48.50;;;23.07;;
66327;SDS011;53133;52.862;6.602;2022-12-19T02:45:34;51.23;;;23.63;;
66327;SDS011;53133;52.862;6.602;2022-12-19T02:48:02;50.30;;;24.73;;
66327;SDS011;53133;52.862;6.602;2022-12-19T02:50:42;49.20;;;23.33;;
66327;SDS011;53133;52.862;6.602;2022-12-19T02:53:10;48.50;;;22.17;;
66327;SDS011;53133;52.862;6.602;2022-12-19T02:55:43;52.93;;;23.87;;
66327;SDS011;53133;52.862;6.602;2022-12-19T02:58:20;50.53;;;23.67;;
66327;SDS011;53133;52.862;6.602;2022-12-19T03:01:07;56.17;;;25.58;;
66327;SDS011;53133;52.862;6.602;2022-12-19T03:03:45;53.43;;;24.03;;
66327;SDS011;53133;52.862;6.602;2022-12-19T03:06:33;50.70;;;22.83;;
66327;SDS011;53133;52.862;6.602;2022-12-19T03:11:42;52.33;;;24.50;;
66327;SDS011;53133;52.862;6.602;2022-12-19T03:14:14;52.20;;;24.27;;
66327;SDS011;53133;52.862;6.602;2022-12-19T03:16:43;54.80;;;25.77;;
66327;SDS011;53133;52.862;6.602;2022-12-19T03:19:10;52.10;;;24.00;;
66327;SDS011;53133;52.862;6.602;2022-12-19T03:21:39;50.27;;;24.70;;
66327;SDS011;53133;52.862;6.602;2022-12-19T03:24:08;48.53;;;24.90;;
66327;SDS011;53133;52.862;6.602;2022-12-19T03:26:36;50.67;;;25.27;;
66327;SDS011;53133;52.862;6.602;2022-12-19T03:29:13;52.80;;;25.47;;
66327;SDS011;53133;52.862;6.602;2022-12-19T03:31:44;55.20;;;24.70;;
66327;SDS011;53133;52.862;6.602;2022-12-19T03:34:18;50.90;;;24.47;;
66327;SDS011;53133;52.862;6.602;2022-12-19T03:36:54;55.03;;;25.77;;
66327;SDS011;53133;52.862;6.602;2022-12-19T03:39:23;63.43;;;27.60;;
66327;SDS011;53133;52.862;6.602;2022-12-19T03:41:50;55.53;;;26.40;;
66327;SDS011;53133;52.862;6.602;2022-12-19T03:44:36;60.57;;;27.83;;
66327;SDS011;53133;52.862;6.602;2022-12-19T03:47:08;54.87;;;26.43;;
66327;SDS011;53133;52.862;6.602;2022-12-19T03:49:39;62.00;;;27.87;;
66327;SDS011;53133;52.862;6.602;2022-12-19T03:52:16;60.40;;;27.13;;
66327;SDS011;53133;52.862;6.602;2022-12-19T03:54:53;59.47;;;27.67;;
66327;SDS011;53133;52.862;6.602;2022-12-19T03:57:35;56.27;;;26.60;;
66327;SDS011;53133;52.862;6.602;2022-12-19T04:00:08;57.07;;;26.53;;
66327;SDS011;53133;52.862;6.602;2022-12-19T04:02:37;60.40;;;28.03;;
66327;SDS011;53133;52.862;6.602;2022-12-19T04:05:06;61.63;;;28.87;;
66327;SDS011;53133;52.862;6.602;2022-12-19T04:07:35;58.87;;;28.77;;
66327;SDS011;53133;52.862;6.602;2022-12-19T04:10:03;62.17;;;27.13;;
66327;SDS011;53133;52.862;6.602;2022-12-19T04:12:36;61.17;;;27.93;;
66327;SDS011;53133;52.862;6.602;2022-12-19T04:15:05;61.03;;;28.93;;
66327;SDS011;53133;52.862;6.602;2022-12-19T04:20:14;59.77;;;29.40;;
66327;SDS011;53133;52.862;6.602;2022-12-19T04:22:55;66.87;;;29.77;;
66327;SDS011;53133;52.862;6.602;2022-12-19T04:25:36;63.10;;;29.13;;
66327;SDS011;53133;52.862;6.602;2022-12-19T04:28:08;67.60;;;29.27;;
66327;SDS011;53133;52.862;6.602;2022-12-19T04:30:39;63.23;;;29.67;;
66327;SDS011;53133;52.862;6.602;2022-12-19T04:33:06;59.80;;;28.37;;
66327;SDS011;53133;52.862;6.602;2022-12-19T04:35:32;60.87;;;28.50;;
66327;SDS011;53133;52.862;6.602;2022-12-19T04:37:59;59.00;;;29.33;;
66327;SDS011;53133;52.862;6.602;2022-12-19T04:40:24;61.70;;;28.83;;
66327;SDS011;53133;52.862;6.602;2022-12-19T04:42:50;61.30;;;28.20;;
66327;SDS011;53133;52.862;6.602;2022-12-19T04:45:15;65.80;;;28.83;;
66327;SDS011;53133;52.862;6.602;2022-12-19T04:47:41;58.87;;;28.47;;
66327;SDS011;53133;52.862;6.602;2022-12-19T04:50:07;53.50;;;27.50;;
66327;SDS011;53133;52.862;6.602;2022-12-19T04:52:33;57.80;;;28.27;;
66327;SDS011;53133;52.862;6.602;2022-12-19T04:54:59;55.97;;;27.00;;
66327;SDS011;53133;52.862;6.602;2022-12-19T04:57:27;57.90;;;27.07;;
66327;SDS011;53133;52.862;6.602;2022-12-19T04:59:54;59.10;;;27.33;;
66327;SDS011;53133;52.862;6.602;2022-12-19T05:02:19;51.73;;;25.63;;
66327;SDS011;53133;52.862;6.602;2022-12-19T05:04:48;53.40;;;25.90;;
66327;SDS011;53133;52.862;6.602;2022-12-19T05:07:14;57.53;;;27.07;;
66327;SDS011;53133;52.862;6.602;2022-12-19T05:09:43;58.00;;;27.30;;
66327;SDS011;53133;52.862;6.602;2022-12-19T05:12:09;58.47;;;27.53;;
66327;SDS011;53133;52.862;6.602;2022-12-19T05:14:34;59.37;;;27.53;;
66327;SDS011;53133;52.862;6.602;2022-12-19T05:17:00;60.23;;;27.83;;
66327;SDS011;53133;52.862;6.602;2022-12-19T05:19:25;53.13;;;27.00;;
66327;SDS011;53133;52.862;6.602;2022-12-19T05:21:51;61.00;;;27.53;;
66327;SDS011;53133;52.862;6.602;2022-12-19T05:24:17;56.63;;;26.63;;
66327;SDS011;53133;52.862;6.602;2022-12-19T05:26:42;55.57;;;26.47;;
66327;SDS011;53133;52.862;6.602;2022-12-19T05:29:08;61.10;;;27.00;;
66327;SDS011;53133;52.862;6.602;2022-12-19T05:31:34;58.53;;;27.03;;
66327;SDS011;53133;52.862;6.602;2022-12-19T05:33:59;55.67;;;26.80;;
66327;SDS011;53133;52.862;6.602;2022-12-19T05:36:25;56.43;;;26.20;;
66327;SDS011;53133;52.862;6.602;2022-12-19T05:38:50;53.70;;;25.30;;
66327;SDS011;53133;52.862;6.602;2022-12-19T05:41:17;56.93;;;26.87;;
66327;SDS011;53133;52.862;6.602;2022-12-19T05:43:53;58.00;;;25.90;;
66327;SDS011;53133;52.862;6.602;2022-12-19T05:46:20;49.63;;;25.03;;
66327;SDS011;53133;52.862;6.602;2022-12-19T05:48:46;52.17;;;24.43;;
66327;SDS011;53133;52.862;6.602;2022-12-19T05:51:12;60.53;;;26.37;;
66327;SDS011;53133;52.862;6.602;2022-12-19T05:53:38;51.13;;;25.43;;
66327;SDS011;53133;52.862;6.602;2022-12-19T05:56:05;47.83;;;23.57;;
66327;SDS011;53133;52.862;6.602;2022-12-19T05:58:33;50.40;;;23.73;;
66327;SDS011;53133;52.862;6.602;2022-12-19T06:01:02;50.80;;;23.77;;
66327;SDS011;53133;52.862;6.602;2022-12-19T06:03:29;49.13;;;22.83;;
66327;SDS011;53133;52.862;6.602;2022-12-19T06:05:55;49.27;;;23.23;;
66327;SDS011;53133;52.862;6.602;2022-12-19T06:08:20;47.60;;;23.03;;
66327;SDS011;53133;52.862;6.602;2022-12-19T06:10:46;52.77;;;25.00;;
66327;SDS011;53133;52.862;6.602;2022-12-19T06:13:12;48.97;;;24.07;;
66327;SDS011;53133;52.862;6.602;2022-12-19T06:15:37;45.10;;;22.50;;
66327;SDS011;53133;52.862;6.602;2022-12-19T06:18:03;46.83;;;21.33;;
66327;SDS011;53133;52.862;6.602;2022-12-19T06:20:28;43.23;;;21.90;;
66327;SDS011;53133;52.862;6.602;2022-12-19T06:22:54;43.93;;;21.20;;
66327;SDS011;53133;52.862;6.602;2022-12-19T06:25:19;46.83;;;22.50;;
66327;SDS011;53133;52.862;6.602;2022-12-19T06:27:45;42.07;;;22.00;;
66327;SDS011;53133;52.862;6.602;2022-12-19T06:30:11;43.67;;;20.97;;
66327;SDS011;53133;52.862;6.602;2022-12-19T06:32:36;42.13;;;21.17;;
66327;SDS011;53133;52.862;6.602;2022-12-19T06:35:02;46.37;;;22.43;;
66327;SDS011;53133;52.862;6.602;2022-12-19T06:37:28;41.70;;;21.00;;
66327;SDS011;53133;52.862;6.602;2022-12-19T06:39:53;42.77;;;20.43;;
66327;SDS011;53133;52.862;6.602;2022-12-19T06:42:19;38.63;;;20.00;;
66327;SDS011;53133;52.862;6.602;2022-12-19T06:44:48;43.00;;;19.50;;
66327;SDS011;53133;52.862;6.602;2022-12-19T06:47:15;36.30;;;18.40;;
66327;SDS011;53133;52.862;6.602;2022-12-19T06:49:41;37.87;;;18.90;;
66327;SDS011;53133;52.862;6.602;2022-12-19T06:52:06;41.43;;;18.43;;
66327;SDS011;53133;52.862;6.602;2022-12-19T06:54:32;35.80;;;18.27;;
66327;SDS011;53133;52.862;6.602;2022-12-19T06:56:57;33.20;;;17.50;;
66327;SDS011;53133;52.862;6.602;2022-12-19T06:59:23;31.77;;;17.10;;
66327;SDS011;53133;52.862;6.602;2022-12-19T07:01:53;32.77;;;17.67;;
66327;SDS011;53133;52.862;6.602;2022-12-19T07:04:46;33.07;;;17.33;;
66327;SDS011;53133;52.862;6.602;2022-12-19T07:07:15;29.73;;;15.70;;
66327;SDS011;53133;52.862;6.602;2022-12-19T07:09:41;33.23;;;16.87;;
66327;SDS011;53133;52.862;6.602;2022-12-19T07:12:06;32.87;;;16.80;;
66327;SDS011;53133;52.862;6.602;2022-12-19T07:14:32;30.90;;;16.90;;
66327;SDS011;53133;52.862;6.602;2022-12-19T07:16:58;32.33;;;17.17;;
66327;SDS011;53133;52.862;6.602;2022-12-19T07:19:24;31.83;;;16.47;;
66327;SDS011;53133;52.862;6.602;2022-12-19T07:21:51;33.13;;;16.73;;
66327;SDS011;53133;52.862;6.602;2022-12-19T07:24:18;29.93;;;16.07;;
66327;SDS011;53133;52.862;6.602;2022-12-19T07:26:43;31.73;;;16.30;;
66327;SDS011;53133;52.862;6.602;2022-12-19T07:29:09;28.70;;;16.63;;
66327;SDS011;53133;52.862;6.602;2022-12-19T07:31:36;31.97;;;16.63;;
66327;SDS011;53133;52.862;6.602;2022-12-19T07:34:02;32.47;;;18.20;;
66327;SDS011;53133;52.862;6.602;2022-12-19T07:36:27;33.57;;;17.13;;
66327;SDS011;53133;52.862;6.602;2022-12-19T07:38:53;33.73;;;17.27;;
66327;SDS011;53133;52.862;6.602;2022-12-19T07:41:18;30.00;;;15.83;;
66327;SDS011;53133;52.862;6.602;2022-12-19T07:43:44;28.47;;;16.00;;
66327;SDS011;53133;52.862;6.602;2022-12-19T07:46:11;28.10;;;15.80;;
66327;SDS011;53133;52.862;6.602;2022-12-19T07:48:36;27.80;;;15.23;;
66327;SDS011;53133;52.862;6.602;2022-12-19T07:51:02;27.57;;;14.97;;
66327;SDS011;53133;52.862;6.602;2022-12-19T07:53:29;25.60;;;14.63;;
66327;SDS011;53133;52.862;6.602;2022-12-19T07:55:55;26.87;;;14.33;;
66327;SDS011;53133;52.862;6.602;2022-12-19T07:58:21;26.07;;;14.60;;
66327;SDS011;53133;52.862;6.602;2022-12-19T08:00:56;27.30;;;14.10;;
66327;SDS011;53133;52.862;6.602;2022-12-19T08:03:24;25.83;;;13.83;;
66327;SDS011;53133;52.862;6.602;2022-12-19T08:05:50;22.53;;;13.97;;
66327;SDS011;53133;52.862;6.602;2022-12-19T08:08:15;23.83;;;13.93;;
66327;SDS011;53133;52.862;6.602;2022-12-19T08:10:41;26.73;;;14.00;;
66327;SDS011;53133;52.862;6.602;2022-12-19T08:13:07;24.90;;;13.87;;
66327;SDS011;53133;52.862;6.602;2022-12-19T08:15:33;25.50;;;14.23;;
66327;SDS011;53133;52.862;6.602;2022-12-19T08:17:58;21.17;;;12.73;;
66327;SDS011;53133;52.862;6.602;2022-12-19T08:20:24;21.70;;;13.07;;
66327;SDS011;53133;52.862;6.602;2022-12-19T08:22:49;26.60;;;15.03;;
66327;SDS011;53133;52.862;6.602;2022-12-19T08:25:15;25.95;;;13.75;;
66327;SDS011;53133;52.862;6.602;2022-12-19T08:27:41;26.17;;;13.83;;
66327;SDS011;53133;52.862;6.602;2022-12-19T08:30:07;24.13;;;12.87;;
66327;SDS011;53133;52.862;6.602;2022-12-19T08:32:33;25.90;;;13.52;;
66327;SDS011;53133;52.862;6.602;2022-12-19T08:34:58;23.20;;;13.07;;
66327;SDS011;53133;52.862;6.602;2022-12-19T08:37:24;22.50;;;13.43;;
66327;SDS011;53133;52.862;6.602;2022-12-19T08:39:50;23.15;;;12.85;;
66327;SDS011;53133;52.862;6.602;2022-12-19T08:42:15;22.40;;;12.77;;
66327;SDS011;53133;52.862;6.602;2022-12-19T08:44:41;23.13;;;13.20;;
66327;SDS011;53133;52.862;6.602;2022-12-19T08:47:07;23.95;;;13.15;;
66327;SDS011;53133;52.862;6.602;2022-12-19T08:49:33;24.80;;;13.73;;
66327;SDS011;53133;52.862;6.602;2022-12-19T08:51:59;29.70;;;15.33;;
66327;SDS011;53133;52.862;6.602;2022-12-19T08:54:24;23.27;;;13.88;;
66327;SDS011;53133;52.862;6.602;2022-12-19T08:56:51;24.63;;;13.97;;
66327;SDS011;53133;52.862;6.602;2022-12-19T08:59:16;25.60;;;13.63;;
66327;SDS011;53133;52.862;6.602;2022-12-19T09:01:42;25.57;;;14.13;;
66327;SDS011;53133;52.862;6.602;2022-12-19T09:04:08;26.87;;;15.13;;
66327;SDS011;53133;52.862;6.602;2022-12-19T09:06:33;25.20;;;14.00;;
66327;SDS011;53133;52.862;6.602;2022-12-19T09:08:59;24.25;;;14.48;;
66327;SDS011;53133;52.862;6.602;2022-12-19T09:11:25;26.77;;;15.18;;
66327;SDS011;53133;52.862;6.602;2022-12-19T09:13:50;26.17;;;14.90;;
66327;SDS011;53133;52.862;6.602;2022-12-19T09:16:20;27.90;;;15.40;;
66327;SDS011;53133;52.862;6.602;2022-12-19T09:18:48;28.77;;;15.95;;
66327;SDS011;53133;52.862;6.602;2022-12-19T09:21:15;29.27;;;17.00;;
66327;SDS011;53133;52.862;6.602;2022-12-19T09:23:49;31.60;;;16.73;;
66327;SDS011;53133;52.862;6.602;2022-12-19T09:26:16;29.67;;;16.95;;
66327;SDS011;53133;52.862;6.602;2022-12-19T09:28:44;33.03;;;17.58;;
66327;SDS011;53133;52.862;6.602;2022-12-19T09:31:11;32.05;;;17.70;;
66327;SDS011;53133;52.862;6.602;2022-12-19T09:33:40;33.33;;;18.77;;
66327;SDS011;53133;52.862;6.602;2022-12-19T09:36:06;33.72;;;18.83;;
66327;SDS011;53133;52.862;6.602;2022-12-19T09:38:35;38.80;;;19.85;;
66327;SDS011;53133;52.862;6.602;2022-12-19T09:44:08;34.75;;;18.90;;
66327;SDS011;53133;52.862;6.602;2022-12-19T09:49:22;33.00;;;18.10;;
66327;SDS011;53133;52.862;6.602;2022-12-19T09:57:03;30.75;;;17.40;;
66327;SDS011;53133;52.862;6.602;2022-12-19T09:59:37;37.85;;;21.40;;
66327;SDS011;53133;52.862;6.602;2022-12-19T10:04:48;29.40;;;15.98;;
66327;SDS011;53133;52.862;6.602;2022-12-19T10:07:17;30.77;;;17.20;;
66327;SDS011;53133;52.862;6.602;2022-12-19T10:09:44;27.45;;;16.50;;
66327;SDS011;53133;52.862;6.602;2022-12-19T10:20:54;27.30;;;16.10;;
66327;SDS011;53133;52.862;6.602;2022-12-19T10:26:48;27.20;;;15.48;;
66327;SDS011;53133;52.862;6.602;2022-12-19T10:32:16;27.00;;;16.70;;
66327;SDS011;53133;52.862;6.602;2022-12-19T10:34:49;27.50;;;15.02;;
66327;SDS011;53133;52.862;6.602;2022-12-19T10:37:23;25.20;;;13.82;;
66327;SDS011;53133;52.862;6.602;2022-12-19T10:42:40;26.45;;;14.70;;
66327;SDS011;53133;52.862;6.602;2022-12-19T10:45:14;24.13;;;14.35;;
66327;SDS011;53133;52.862;6.602;2022-12-19T10:47:42;23.42;;;15.13;;
66327;SDS011;53133;52.862;6.602;2022-12-19T10:50:11;25.13;;;14.20;;
66327;SDS011;53133;52.862;6.602;2022-12-19T10:53:11;21.08;;;13.27;;
66327;SDS011;53133;52.862;6.602;2022-12-19T10:58:10;20.58;;;13.10;;
66327;SDS011;53133;52.862;6.602;2022-12-19T11:00:36;24.80;;;14.27;;
66327;SDS011;53133;52.862;6.602;2022-12-19T11:03:11;22.42;;;13.23;;
66327;SDS011;53133;52.862;6.602;2022-12-19T11:05:40;22.65;;;13.65;;
66327;SDS011;53133;52.862;6.602;2022-12-19T11:08:21;22.85;;;14.65;;
66327;SDS011;53133;52.862;6.602;2022-12-19T11:10:54;21.35;;;14.70;;
66327;SDS011;53133;52.862;6.602;2022-12-19T11:13:44;20.35;;;13.27;;
66327;SDS011;53133;52.862;6.602;2022-12-19T11:16:11;25.40;;;13.35;;
66327;SDS011;53133;52.862;6.602;2022-12-19T11:18:45;20.40;;;13.13;;
66327;SDS011;53133;52.862;6.602;2022-12-19T11:23:48;21.55;;;12.75;;
66327;SDS011;53133;52.862;6.602;2022-12-19T11:26:27;22.75;;;12.27;;
66327;SDS011;53133;52.862;6.602;2022-12-19T11:28:56;22.90;;;13.15;;
66327;SDS011;53133;52.862;6.602;2022-12-19T11:31:40;19.92;;;12.38;;
66327;SDS011;53133;52.862;6.602;2022-12-19T11:34:12;24.92;;;12.90;;
66327;SDS011;53133;52.862;6.602;2022-12-19T11:39:44;19.17;;;11.75;;
66327;SDS011;53133;52.862;6.602;2022-12-19T11:42:16;21.27;;;11.95;;
66327;SDS011;53133;52.862;6.602;2022-12-19T11:50:03;17.83;;;11.75;;
66327;SDS011;53133;52.862;6.602;2022-12-19T11:53:40;18.85;;;11.52;;
66327;SDS011;53133;52.862;6.602;2022-12-19T11:56:07;20.55;;;13.35;;
66327;SDS011;53133;52.862;6.602;2022-12-19T11:58:40;20.00;;;13.52;;
66327;SDS011;53133;52.862;6.602;2022-12-19T12:01:15;21.30;;;12.57;;
66327;SDS011;53133;52.862;6.602;2022-12-19T12:06:31;26.27;;;14.20;;
66327;SDS011;53133;52.862;6.602;2022-12-19T12:09:03;23.90;;;13.63;;
66327;SDS011;53133;52.862;6.602;2022-12-19T12:11:48;19.70;;;12.70;;
66327;SDS011;53133;52.862;6.602;2022-12-19T12:14:21;19.65;;;11.73;;
66327;SDS011;53133;52.862;6.602;2022-12-19T12:22:43;22.35;;;16.08;;
66327;SDS011;53133;52.862;6.602;2022-12-19T12:47:56;21.23;;;13.40;;
66327;SDS011;53133;52.862;6.602;2022-12-19T12:50:23;20.83;;;12.80;;
66327;SDS011;53133;52.862;6.602;2022-12-19T12:52:54;18.95;;;12.23;;
66327;SDS011;53133;52.862;6.602;2022-12-19T12:55:33;29.67;;;15.23;;
66327;SDS011;53133;52.862;6.602;2022-12-19T12:58:08;21.30;;;12.73;;
66327;SDS011;53133;52.862;6.602;2022-12-19T13:01:08;26.30;;;14.48;;
66327;SDS011;53133;52.862;6.602;2022-12-19T13:03:38;21.75;;;14.65;;
66327;SDS011;53133;52.862;6.602;2022-12-19T13:06:09;19.10;;;12.52;;
66327;SDS011;53133;52.862;6.602;2022-12-19T13:09:00;20.42;;;12.40;;
66327;SDS011;53133;52.862;6.602;2022-12-19T13:19:37;20.42;;;12.63;;
66327;SDS011;53133;52.862;6.602;2022-12-19T13:24:44;16.45;;;11.65;;
66327;SDS011;53133;52.862;6.602;2022-12-19T13:34:55;17.80;;;11.57;;
66327;SDS011;53133;52.862;6.602;2022-12-19T13:40:13;18.90;;;11.23;;
66327;SDS011;53133;52.862;6.602;2022-12-19T13:45:51;18.77;;;11.95;;
66327;SDS011;53133;52.862;6.602;2022-12-19T13:48:36;15.50;;;11.45;;
66327;SDS011;53133;52.862;6.602;2022-12-19T13:51:07;16.45;;;11.20;;
66327;SDS011;53133;52.862;6.602;2022-12-19T13:53:34;17.50;;;11.15;;
66327;SDS011;53133;52.862;6.602;2022-12-19T13:56:02;15.88;;;10.82;;
66327;SDS011;53133;52.862;6.602;2022-12-19T13:58:31;15.90;;;10.15;;
66327;SDS011;53133;52.862;6.602;2022-12-19T14:01:07;15.85;;;10.10;;
66327;SDS011;53133;52.862;6.602;2022-12-19T14:03:39;13.93;;;9.75;;
66327;SDS011;53133;52.862;6.602;2022-12-19T14:08:48;21.90;;;11.23;;
66327;SDS011;53133;52.862;6.602;2022-12-19T14:11:17;19.52;;;12.30;;
66327;SDS011;53133;52.862;6.602;2022-12-19T14:13:46;19.80;;;13.00;;
66327;SDS011;53133;52.862;6.602;2022-12-19T14:16:44;15.73;;;10.70;;
66327;SDS011;53133;52.862;6.602;2022-12-19T14:19:21;17.40;;;11.10;;
66327;SDS011;53133;52.862;6.602;2022-12-19T14:22:09;17.42;;;11.07;;
66327;SDS011;53133;52.862;6.602;2022-12-19T14:24:36;15.35;;;9.55;;
66327;SDS011;53133;52.862;6.602;2022-12-19T14:27:03;16.08;;;10.50;;
66327;SDS011;53133;52.862;6.602;2022-12-19T14:29:39;14.55;;;10.13;;
66327;SDS011;53133;52.862;6.602;2022-12-19T14:32:11;16.10;;;9.90;;
66327;SDS011;53133;52.862;6.602;2022-12-19T14:34:38;15.75;;;9.70;;
66327;SDS011;53133;52.862;6.602;2022-12-19T14:37:03;15.70;;;9.07;;
66327;SDS011;53133;52.862;6.602;2022-12-19T14:39:30;24.73;;;13.88;;
66327;SDS011;53133;52.862;6.602;2022-12-19T14:42:11;34.45;;;18.05;;
66327;SDS011;53133;52.862;6.602;2022-12-19T14:44:57;53.78;;;27.17;;
66327;SDS011;53133;52.862;6.602;2022-12-19T14:47:24;24.52;;;15.65;;
66327;SDS011;53133;52.862;6.602;2022-12-19T14:49:58;15.15;;;9.32;;
66327;SDS011;53133;52.862;6.602;2022-12-19T14:57:45;16.40;;;9.30;;
66327;SDS011;53133;52.862;6.602;2022-12-19T15:00:47;13.60;;;9.15;;
66327;SDS011;53133;52.862;6.602;2022-12-19T15:03:26;15.48;;;10.00;;
66327;SDS011;53133;52.862;6.602;2022-12-19T15:06:14;13.57;;;9.50;;
66327;SDS011;53133;52.862;6.602;2022-12-19T15:08:42;14.68;;;9.10;;
66327;SDS011;53133;52.862;6.602;2022-12-19T15:11:20;18.33;;;10.13;;
66327;SDS011;53133;52.862;6.602;2022-12-19T15:14:09;19.77;;;11.20;;
66327;SDS011;53133;52.862;6.602;2022-12-19T15:16:34;24.08;;;13.13;;
66327;SDS011;53133;52.862;6.602;2022-12-19T15:19:00;15.32;;;9.52;;
66327;SDS011;53133;52.862;6.602;2022-12-19T15:21:28;26.45;;;12.75;;
66327;SDS011;53133;52.862;6.602;2022-12-19T15:23:54;18.00;;;9.55;;
66327;SDS011;53133;52.862;6.602;2022-12-19T15:26:33;12.77;;;8.88;;
66327;SDS011;53133;52.862;6.602;2022-12-19T15:29:00;15.40;;;9.90;;
66327;SDS011;53133;52.862;6.602;2022-12-19T15:34:22;16.38;;;9.25;;
66327;SDS011;53133;52.862;6.602;2022-12-19T15:36:49;25.60;;;12.13;;
66327;SDS011;53133;52.862;6.602;2022-12-19T15:39:16;18.90;;;12.63;;
66327;SDS011;53133;52.862;6.602;2022-12-19T15:41:42;13.95;;;9.32;;
66327;SDS011;53133;52.862;6.602;2022-12-19T15:44:32;11.57;;;8.13;;
66327;SDS011;53133;52.862;6.602;2022-12-19T15:47:04;14.75;;;10.10;;
66327;SDS011;53133;52.862;6.602;2022-12-19T15:49:31;18.77;;;12.70;;
66327;SDS011;53133;52.862;6.602;2022-12-19T15:51:59;16.60;;;10.05;;
66327;SDS011;53133;52.862;6.602;2022-12-19T15:54:25;16.55;;;10.18;;
66327;SDS011;53133;52.862;6.602;2022-12-19T15:56:51;17.02;;;10.68;;
66327;SDS011;53133;52.862;6.602;2022-12-19T16:01:50;16.38;;;9.98;;
66327;SDS011;53133;52.862;6.602;2022-12-19T16:04:17;15.43;;;11.50;;
66327;SDS011;53133;52.862;6.602;2022-12-19T16:06:43;14.43;;;9.68;;
66327;SDS011;53133;52.862;6.602;2022-12-19T16:09:16;13.68;;;8.77;;
66327;SDS011;53133;52.862;6.602;2022-12-19T16:11:45;14.98;;;8.95;;
66327;SDS011;53133;52.862;6.602;2022-12-19T16:14:11;12.88;;;8.80;;
66327;SDS011;53133;52.862;6.602;2022-12-19T16:16:37;12.18;;;8.93;;
66327;SDS011;53133;52.862;6.602;2022-12-19T16:19:12;15.75;;;11.05;;
66327;SDS011;53133;52.862;6.602;2022-12-19T16:21:55;13.20;;;9.53;;
66327;SDS011;53133;52.862;6.602;2022-12-19T16:24:21;13.70;;;9.63;;
66327;SDS011;53133;52.862;6.602;2022-12-19T16:26:52;19.77;;;10.85;;
66327;SDS011;53133;52.862;6.602;2022-12-19T16:29:20;15.77;;;10.60;;
66327;SDS011;53133;52.862;6.602;2022-12-19T16:31:48;19.58;;;11.68;;
66327;SDS011;53133;52.862;6.602;2022-12-19T16:34:14;18.77;;;12.27;;
66327;SDS011;53133;52.862;6.602;2022-12-19T16:36:42;15.23;;;9.88;;
66327;SDS011;53133;52.862;6.602;2022-12-19T16:39:07;18.42;;;15.50;;
66327;SDS011;53133;52.862;6.602;2022-12-19T16:41:33;19.77;;;12.98;;
66327;SDS011;53133;52.862;6.602;2022-12-19T16:43:59;20.33;;;14.30;;
66327;SDS011;53133;52.862;6.602;2022-12-19T16:46:25;21.65;;;14.57;;
66327;SDS011;53133;52.862;6.602;2022-12-19T16:48:57;15.48;;;10.63;;
66327;SDS011;53133;52.862;6.602;2022-12-19T16:51:24;15.63;;;10.60;;
66327;SDS011;53133;52.862;6.602;2022-12-19T16:53:52;26.80;;;16.52;;
66327;SDS011;53133;52.862;6.602;2022-12-19T16:56:24;46.08;;;33.63;;
66327;SDS011;53133;52.862;6.602;2022-12-19T16:58:54;17.48;;;10.98;;
66327;SDS011;53133;52.862;6.602;2022-12-19T17:01:22;19.65;;;11.90;;
66327;SDS011;53133;52.862;6.602;2022-12-19T17:03:47;15.25;;;10.80;;